This is the latest recevied weather packets stored in our database for station/object MB7UKB-10. If no packets are shown the sender has not sent any weather packets the latest 10 day(s).
| Time | Temp. | Humidity | Pressure | Rain* | Wind** | Luminosity | Snow |
|---|---|---|---|---|---|---|---|
| 1788041726 | 17.78° C | 88% | 1004.9 hPa | 0 mm | - | - | - |
| 1788038126 | 17.78° C | 89% | 1004.2 hPa | 0 mm | - | - | - |
| 1788036326 | 18.33° C | 88% | 1004 hPa | 0 mm | - | - | - |
| 1788034527 | 17.78° C | 90% | 1003.6 hPa | 0 mm | - | - | - |
| 1788032726 | 18.33° C | 90% | 1003.4 hPa | 0 mm | - | - | - |
| 1788030926 | 18.89° C | 89% | 1002.7 hPa | 0 mm | - | - | - |
| 1788029126 | 19.44° C | 87% | 1002.2 hPa | 0 mm | - | - | - |
| 1788027329 | 19.44° C | 84% | 1001.8 hPa | 0 mm | - | - | - |
| 1788025526 | 20° C | 84% | 1001.4 hPa | 0 mm | - | - | - |
| 1788023726 | 20° C | 87% | 1000.9 hPa | 0 mm | - | - | - |
| 1788021926 | 19.44° C | 92% | 1000.3 hPa | 0 mm | - | - | - |
| 1788020126 | 18.89° C | 92% | 1000 hPa | 2.03 mm | - | - | - |
| 1788018326 | 18.33° C | 93% | 999.9 hPa | 2.29 mm | - | - | - |
| 1788014727 | 18.89° C | 91% | 1000 hPa | 0.25 mm | - | - | - |
| 1788012927 | 18.89° C | 88% | 1000.4 hPa | 0.51 mm | - | - | - |
| 1788011127 | 18.89° C | 89% | 1000.8 hPa | 0.51 mm | - | - | - |
| 1788009327 | 20.56° C | 80% | 1000.9 hPa | 0 mm | - | - | - |
| 1788007528 | 21.11° C | 79% | 1001.5 hPa | 0 mm | - | - | - |
| 1788005726 | 20° C | 85% | 1001.9 hPa | 0 mm | - | - | - |
| 1788003926 | 19.44° C | 84% | 1002.6 hPa | 0 mm | - | - | - |
| 1788002126 | 18.33° C | 86% | 1003 hPa | 0 mm | - | - | - |
| 1788000326 | 18.33° C | 86% | 1003.6 hPa | 0 mm | - | - | - |
| 1787998528 | 17.22° C | 86% | 1004.3 hPa | 0.25 mm | - | - | - |
| 1787996726 | 17.22° C | 87% | 1004.9 hPa | 0.51 mm | - | - | - |
| 1787994926 | 17.22° C | 90% | 1005.3 hPa | 0.51 mm | - | - | - |
* Rain latest hour (hover to see other rain measurements)
** Current wind speed in m/s (hover to see current wind gust speed)